Time;durP1;ratioP1;P1;durP2;ratioP2;P2;SDS_P1;SDS_P2;PMS_P1;PMS_P2;Temp;Humidity;BMP_temperature;BMP_pressure;BME280_temperature;BME280_humidity;BME280_pressure;Samples;Min_cycle;Max_cycle;Signal;HPM_P1;HPM_P2
2021/04/14 00:07:13;;;;;;;39.3;32.5;;;;;;;0.77;100;99134.7;;;;
2021/04/14 00:17:11;;;;;;;31.6;26.1;;;;;;;0.66;100;99116.94;;;;
2021/04/14 00:27:08;;;;;;;31.8;27.4;;;;;;;0.62;100;99105.2;;;;
2021/04/14 00:37:06;;;;;;;25.2;19.1;;;;;;;0.63;100;99108.63;;;;
2021/04/14 00:47:04;;;;;;;36.6;27.8;;;;;;;0.65;100;99102.08;;;;
2021/04/14 00:57:01;;;;;;;32.3;26.4;;;;;;;0.73;100;99096.41;;;;
2021/04/14 01:06:59;;;;;;;29.2;22.6;;;;;;;0.67;100;99091.22;;;;
2021/04/14 01:16:57;;;;;;;23.8;18.9;;;;;;;0.68;100;99084.89;;;;
2021/04/14 01:26:55;;;;;;;26.2;20.8;;;;;;;0.71;100;99085.23;;;;
2021/04/14 01:36:52;;;;;;;24;18.6;;;;;;;0.71;100;99069.32;;;;
2021/04/14 01:46:50;;;;;;;38.3;25.3;;;;;;;0.82;100;99073.81;;;;
2021/04/14 01:56:48;;;;;;;38.4;25.3;;;;;;;0.77;100;99068.38;;;;
2021/04/14 02:06:45;;;;;;;33.1;25.3;;;;;;;0.79;100;99065.52;;;;
2021/04/14 02:16:43;;;;;;;25.6;21.6;;;;;;;0.75;100;99057.21;;;;
2021/04/14 02:26:41;;;;;;;25.2;20.3;;;;;;;0.76;100;99050.88;;;;
2021/04/14 02:36:38;;;;;;;39.7;28.5;;;;;;;0.74;100;99047.63;;;;
2021/04/14 02:46:36;;;;;;;34.2;27.5;;;;;;;0.67;100;99032.88;;;;
2021/04/14 02:56:34;;;;;;;39.3;33.7;;;;;;;0.71;100;99036.68;;;;
2021/04/14 03:06:31;;;;;;;40.2;27.7;;;;;;;0.68;100;99037.95;;;;
2021/04/14 03:16:29;;;;;;;32.6;28.3;;;;;;;0.65;100;99049.03;;;;
2021/04/14 03:26:27;;;;;;;31.1;27.7;;;;;;;0.61;100;99039.92;;;;
2021/04/14 03:36:25;;;;;;;32.3;26.9;;;;;;;0.63;100;99039.67;;;;
2021/04/14 03:46:22;;;;;;;31.4;28;;;;;;;0.66;100;99042.67;;;;
2021/04/14 03:56:20;;;;;;;27.2;24.6;;;;;;;0.65;100;99037.62;;;;
2021/04/14 04:06:18;;;;;;;30.1;23.1;;;;;;;0.7;100;99048.32;;;;
2021/04/14 04:16:15;;;;;;;26.5;21.4;;;;;;;0.69;100;99060.8;;;;
2021/04/14 04:26:13;;;;;;;35.9;25.1;;;;;;;0.55;100;99059.42;;;;
2021/04/14 04:36:11;;;;;;;31.7;24.5;;;;;;;0.6;100;99062.17;;;;
2021/04/14 04:46:10;;;;;;;31.2;25;;;;;;;0.72;100;99073.59;;;;
2021/04/14 04:56:06;;;;;;;31.5;21.9;;;;;;;0.76;100;99077.41;;;;
2021/04/14 05:06:04;;;;;;;22.6;20.1;;;;;;;0.84;100;99079.68;;;;
2021/04/14 05:16:01;;;;;;;26.1;20.4;;;;;;;1.01;100;99085.08;;;;
2021/04/14 05:25:59;;;;;;;26.1;20.6;;;;;;;1.18;100;99082.53;;;;
2021/04/14 05:35:57;;;;;;;22;18.6;;;;;;;1.21;100;99105.95;;;;
2021/04/14 05:45:55;;;;;;;22.3;16.9;;;;;;;1.33;100;99099.56;;;;
2021/04/14 05:55:52;;;;;;;28.8;21.7;;;;;;;1.33;100;99098.75;;;;
2021/04/14 06:05:50;;;;;;;25.2;18.1;;;;;;;1.43;100;99104.26;;;;
2021/04/14 06:15:48;;;;;;;22.3;19.6;;;;;;;1.47;100;99121.34;;;;
2021/04/14 06:25:58;;;;;;;21;18.7;;;;;;;1.78;100;99120.89;;;;
2021/04/14 06:35:45;;;;;;;20.5;16.9;;;;;;;1.91;100;99125.09;;;;
2021/04/14 06:45:41;;;;;;;23.6;14.6;;;;;;;2.15;100;99123.16;;;;
2021/04/14 06:55:39;;;;;;;20.2;15.8;;;;;;;2.52;100;99116.33;;;;
2021/04/14 07:05:37;;;;;;;46.9;37.7;;;;;;;2.87;100;99108.88;;;;
2021/04/14 07:15:35;;;;;;;17.1;15;;;;;;;3.13;100;99107.35;;;;
2021/04/14 07:25:33;;;;;;;56.8;35;;;;;;;3.04;100;99116.83;;;;
2021/04/14 07:35:31;;;;;;;44.1;28.7;;;;;;;2.9;100;99120.88;;;;
2021/04/14 07:45:30;;;;;;;46.5;27;;;;;;;3.01;100;99127.97;;;;
2021/04/14 07:55:32;;;;;;;20.2;15.9;;;;;;;3.6;100;99131.67;;;;
2021/04/14 08:05:26;;;;;;;21.1;13.9;;;;;;;4.01;100;99133.72;;;;
2021/04/14 08:15:23;;;;;;;17.7;12.7;;;;;;;4.45;100;99138.92;;;;
2021/04/14 08:25:21;;;;;;;16.5;12.3;;;;;;;3.7;100;99147.77;;;;
2021/04/14 08:35:20;;;;;;;25.7;15.7;;;;;;;3.22;100;99148.51;;;;
2021/04/14 08:45:19;;;;;;;20.1;17.1;;;;;;;3.9;100;99142.67;;;;
2021/04/14 08:55:16;;;;;;;11.3;10.1;;;;;;;5.04;100;99140.44;;;;
2021/04/14 09:05:15;;;;;;;10.1;8.5;;;;;;;5.44;100;99131.04;;;;
2021/04/14 09:15:14;;;;;;;7.9;5.6;;;;;;;5.47;100;99136.67;;;;
2021/04/14 09:25:19;;;;;;;5.4;3.1;;;;;;;4.77;100;99139.72;;;;
2021/04/14 09:35:20;;;;;;;15;3.3;;;;;;;4.94;100;99127.02;;;;
2021/04/14 09:45:07;;;;;;;4.4;2.7;;;;;;;4.93;100;99128.07;;;;
2021/04/14 09:55:05;;;;;;;7.3;4.1;;;;;;;4.72;100;99128.21;;;;
2021/04/14 10:05:03;;;;;;;5.4;3.2;;;;;;;4.33;100;99123.09;;;;
2021/04/14 10:15:01;;;;;;;11.9;3.8;;;;;;;4.37;100;99110.83;;;;
2021/04/14 10:24:59;;;;;;;4.5;3.2;;;;;;;4.61;99.75195;99111.31;;;;
2021/04/14 10:34:57;;;;;;;4.4;2.6;;;;;;;4.67;100;99109.47;;;;
2021/04/14 10:44:55;;;;;;;5.6;2.7;;;;;;;4.58;98.86133;99101.92;;;;
2021/04/14 10:54:54;;;;;;;6.5;3.3;;;;;;;4.94;98.74219;99099.5;;;;
2021/04/14 11:04:52;;;;;;;7.6;4.4;;;;;;;4.46;97.24121;99087.97;;;;
2021/04/14 11:14:50;;;;;;;7.7;4.4;;;;;;;4.43;98.48438;99098.35;;;;
2021/04/14 11:24:48;;;;;;;7.2;3.7;;;;;;;4.24;98.60742;99089.91;;;;
2021/04/14 11:34:46;;;;;;;8.2;4.8;;;;;;;4.08;100;99082.84;;;;
2021/04/14 11:44:44;;;;;;;8.9;5.5;;;;;;;4.3;100;99090.78;;;;
2021/04/14 11:54:43;;;;;;;6.9;4;;;;;;;4.78;98.60742;99071.92;;;;
2021/04/14 12:04:41;;;;;;;10.8;5.6;;;;;;;5.57;97.18164;99069.88;;;;
2021/04/14 12:14:39;;;;;;;6;3.8;;;;;;;6.15;92.35449;99072.41;;;;
2021/04/14 12:24:38;;;;;;;9.7;4.8;;;;;;;6.38;93.19531;99069.22;;;;
2021/04/14 12:34:36;;;;;;;7.3;5.3;;;;;;;6.01;92.33887;99059.55;;;;
2021/04/14 12:44:34;;;;;;;10.1;6.7;;;;;;;5.56;94.12988;99049.54;;;;
2021/04/14 12:54:33;;;;;;;9.1;6.2;;;;;;;5.86;92.49512;99054.2;;;;
2021/04/14 13:04:31;;;;;;;10;6.7;;;;;;;5.87;93.61914;99047.77;;;;
2021/04/14 13:14:29;;;;;;;7.7;4.7;;;;;;;5.53;89.61719;99052.75;;;;
2021/04/14 13:24:27;;;;;;;8.3;5.3;;;;;;;5.54;90.82813;99040.99;;;;
2021/04/14 13:34:26;;;;;;;8.1;4.2;;;;;;;5.41;92.93066;99035.34;;;;
2021/04/14 13:44:24;;;;;;;6.2;3.2;;;;;;;5.08;92.47168;99031.2;;;;
2021/04/14 13:54:22;;;;;;;5;2.5;;;;;;;4.81;93.89844;99025.2;;;;
2021/04/14 14:04:20;;;;;;;5.7;2.9;;;;;;;4.63;94.6123;99031.77;;;;
2021/04/14 14:14:19;;;;;;;7.7;3.9;;;;;;;5.06;93.54492;99023.46;;;;
2021/04/14 14:24:17;;;;;;;8.2;4.6;;;;;;;5.13;93.6123;99025.08;;;;
2021/04/14 14:34:15;;;;;;;6.8;3.7;;;;;;;5.37;93.05566;99023.56;;;;
2021/04/14 14:44:15;;;;;;;7.9;3.3;;;;;;;5.16;92.11328;99020.02;;;;
2021/04/14 14:54:14;;;;;;;5.8;3.7;;;;;;;4.43;95.21191;99032.45;;;;
2021/04/14 15:04:12;;;;;;;4.8;3.5;;;;;;;4.31;96.47754;99031;;;;
2021/04/14 15:14:07;;;;;;;10.4;5.1;;;;;;;4.25;97.51563;99037.37;;;;
2021/04/14 15:24:05;;;;;;;11.7;9.6;;;;;;;3.93;99.92578;99034.69;;;;
2021/04/14 15:34:03;;;;;;;5.9;3.9;;;;;;;4.01;99.72363;99039.58;;;;
2021/04/14 15:44:01;;;;;;;9.9;3.9;;;;;;;3.78;100;99038.05;;;;
2021/04/14 15:53:59;;;;;;;10.1;7.1;;;;;;;3.53;100;99040.45;;;;
2021/04/14 16:03:57;;;;;;;17.8;13.9;;;;;;;3.58;100;99043.16;;;;
2021/04/14 16:13:55;;;;;;;27.4;18.4;;;;;;;3.59;100;99043.96;;;;
2021/04/14 16:23:53;;;;;;;81.6;53.9;;;;;;;3.49;100;99034.81;;;;
2021/04/14 16:33:53;;;;;;;22.3;16.1;;;;;;;3.44;100;99036.6;;;;
2021/04/14 16:43:49;;;;;;;8.1;5.9;;;;;;;3.34;100;99039.97;;;;
2021/04/14 16:53:47;;;;;;;34.4;26;;;;;;;3.46;100;99042.5;;;;
2021/04/14 17:03:45;;;;;;;31.6;21.2;;;;;;;3.48;100;99032.39;;;;
2021/04/14 17:13:43;;;;;;;18.8;12.1;;;;;;;3.46;100;99029.99;;;;
2021/04/14 17:23:41;;;;;;;9.4;6.8;;;;;;;3.29;100;99034.59;;;;
2021/04/14 17:33:39;;;;;;;12.7;10.1;;;;;;;3.31;100;99037;;;;
2021/04/14 17:43:37;;;;;;;13;8.1;;;;;;;3.2;100;99040.59;;;;
2021/04/14 17:53:35;;;;;;;18;11.3;;;;;;;2.98;100;99038.76;;;;
2021/04/14 18:03:33;;;;;;;15.6;9.9;;;;;;;3.02;100;99047.02;;;;
2021/04/14 18:13:31;;;;;;;17.3;12.8;;;;;;;2.89;100;99045.54;;;;
2021/04/14 18:23:29;;;;;;;15.5;12.4;;;;;;;2.76;100;99045.9;;;;
2021/04/14 18:33:27;;;;;;;28.9;21.1;;;;;;;2.82;100;99042.25;;;;
2021/04/14 18:43:25;;;;;;;15.2;9.9;;;;;;;2.71;100;99066.33;;;;
2021/04/14 18:53:23;;;;;;;18.6;12.4;;;;;;;2.71;100;99047.7;;;;
2021/04/14 19:03:20;;;;;;;12.9;9.8;;;;;;;2.71;100;99061.01;;;;
2021/04/14 19:13:18;;;;;;;10.1;8.8;;;;;;;2.62;100;99054.47;;;;
2021/04/14 19:23:16;;;;;;;14;8.4;;;;;;;2.55;100;99057.3;;;;
2021/04/14 19:33:14;;;;;;;14.4;9;;;;;;;2.45;100;99049.17;;;;
2021/04/14 19:43:12;;;;;;;16.4;11.5;;;;;;;2.46;100;99050.8;;;;
2021/04/14 19:53:13;;;;;;;11.5;10.3;;;;;;;2.42;100;99055.8;;;;
2021/04/14 20:03:08;;;;;;;20.1;11.6;;;;;;;2.42;100;99044.34;;;;
2021/04/14 20:13:06;;;;;;;10.5;7.9;;;;;;;2.43;100;99049.41;;;;
2021/04/14 20:23:05;;;;;;;11.8;7.6;;;;;;;2.41;100;99048.86;;;;
2021/04/14 20:33:01;;;;;;;20.3;13;;;;;;;2.41;100;99045.38;;;;
2021/04/14 20:43:00;;;;;;;17.2;12.6;;;;;;;2.39;100;99034.2;;;;
2021/04/14 20:52:57;;;;;;;20.3;13.6;;;;;;;2.35;100;99020.58;;;;
2021/04/14 21:02:55;;;;;;;19.2;14.5;;;;;;;2.34;100;99032.26;;;;
2021/04/14 21:12:53;;;;;;;20.7;12.7;;;;;;;2.26;100;99034.5;;;;
2021/04/14 21:22:51;;;;;;;16.7;12.6;;;;;;;2.2;100;99019.53;;;;
2021/04/14 21:32:49;;;;;;;18.7;13.7;;;;;;;2.19;100;99015.25;;;;
2021/04/14 21:42:47;;;;;;;17.7;13.7;;;;;;;2.2;100;99007.05;;;;
2021/04/14 21:52:45;;;;;;;14.3;10.2;;;;;;;2.16;100;98997.94;;;;
2021/04/14 22:02:42;;;;;;;17;12.9;;;;;;;2.12;100;98996.03;;;;
2021/04/14 22:12:40;;;;;;;15.1;12.1;;;;;;;2.13;100;98992.3;;;;
2021/04/14 22:22:38;;;;;;;16.5;11.3;;;;;;;2.08;100;98987.73;;;;
2021/04/14 22:32:36;;;;;;;14.3;11.2;;;;;;;2.05;100;98982.09;;;;
2021/04/14 22:42:34;;;;;;;17.7;12.1;;;;;;;2.1;100;98988.28;;;;
2021/04/14 22:52:32;;;;;;;12.9;11.4;;;;;;;2.07;100;98979.98;;;;
2021/04/14 23:02:29;;;;;;;13.7;10.1;;;;;;;1.95;100;98985.38;;;;
2021/04/14 23:12:27;;;;;;;15.8;11.1;;;;;;;1.92;100;98975.23;;;;
2021/04/14 23:22:25;;;;;;;16.8;10.9;;;;;;;1.95;100;98970.23;;;;
2021/04/14 23:32:23;;;;;;;9.8;6.9;;;;;;;1.96;100;98965.73;;;;
2021/04/14 23:42:21;;;;;;;15.9;9.3;;;;;;;1.93;100;98951.08;;;;
2021/04/14 23:52:18;;;;;;;9.5;7.4;;;;;;;1.7;100;98955.75;;;;
